Time;durP1;ratioP1;P1;durP2;ratioP2;P2;SDS_P1;SDS_P2;PMS_P1;PMS_P2;Temp;Humidity;BMP_temperature;BMP_pressure;BME280_temperature;BME280_humidity;BME280_pressure;Samples;Min_cycle;Max_cycle;Signal;HPM_P1;HPM_P2
2023/09/22 00:01:52;;;;;;;24.05;15.88;;;21.90;82.40;;;;;;4960217;28;20043;-80
2023/09/22 00:04:18;;;;;;;24.65;17.20;;;21.90;82.40;;;;;;4977952;28;20057;-81
2023/09/22 00:06:44;;;;;;;24.60;16.27;;;21.90;82.40;;;;;;4945231;28;20509;-81
2023/09/22 00:09:10;;;;;;;24.73;16.00;;;21.90;82.50;;;;;;4958949;28;20032;-82
2023/09/22 00:11:36;;;;;;;25.27;17.05;;;21.90;82.60;;;;;;4960741;28;20129;-81
2023/09/22 00:14:02;;;;;;;23.23;16.10;;;21.80;82.50;;;;;;4977724;28;20035;-82
2023/09/22 00:16:28;;;;;;;23.85;15.85;;;21.80;82.50;;;;;;4977596;28;20034;-81
2023/09/22 00:18:54;;;;;;;23.02;16.00;;;21.80;82.50;;;;;;4976580;28;20105;-81
2023/09/22 00:21:20;;;;;;;26.42;15.90;;;21.80;82.50;;;;;;4978747;28;20030;-81
2023/09/22 00:23:46;;;;;;;20.88;15.23;;;21.80;82.50;;;;;;4959231;28;20414;-81
2023/09/22 00:26:12;;;;;;;21.42;16.08;;;21.70;82.40;;;;;;4961040;28;20048;-82
2023/09/22 00:28:40;;;;;;;21.17;15.60;;;21.70;82.40;;;;;;4960274;28;20114;-81
2023/09/22 00:31:06;;;;;;;21.45;15.18;;;21.70;82.40;;;;;;4976683;28;20509;-81
2023/09/22 00:33:32;;;;;;;22.40;14.85;;;21.70;82.30;;;;;;4960900;28;20022;-82
2023/09/22 00:36:03;;;;;;;24.85;15.63;;;21.60;82.30;;;;;;4977588;28;20032;-82
2023/09/22 00:38:29;;;;;;;22.48;16.63;;;21.60;82.40;;;;;;4959107;28;20644;-81
2023/09/22 00:40:55;;;;;;;24.45;15.77;;;21.60;82.60;;;;;;4959596;28;20046;-81
2023/09/22 00:43:22;;;;;;;23.95;15.20;;;21.60;82.70;;;;;;4976932;28;20592;-81
2023/09/22 00:45:51;;;;;;;23.30;16.55;;;21.50;82.80;;;;;;4944082;28;20043;-82
2023/09/22 00:48:22;;;;;;;23.35;15.65;;;21.50;82.90;;;;;;4976134;28;20121;-81
2023/09/22 00:50:48;;;;;;;19.52;15.63;;;21.50;82.90;;;;;;4958746;28;20062;-81
2023/09/22 00:53:15;;;;;;;25.58;17.02;;;21.50;82.90;;;;;;4975202;28;20587;-81
2023/09/22 00:55:42;;;;;;;25.83;16.40;;;21.50;83.10;;;;;;4947288;28;20039;-83
2023/09/22 00:58:08;;;;;;;23.30;16.63;;;21.40;83.00;;;;;;4957555;28;20066;-83
2023/09/22 01:00:35;;;;;;;23.17;16.45;;;21.40;83.00;;;;;;4975094;28;20044;-82
2023/09/22 01:03:01;;;;;;;22.10;15.75;;;21.40;83.00;;;;;;4960139;28;20121;-83
2023/09/22 01:05:27;;;;;;;26.13;15.90;;;21.40;82.90;;;;;;4964516;28;20031;-83
2023/09/22 01:07:54;;;;;;;19.95;15.27;;;21.40;83.00;;;;;;4976121;28;20325;-83
2023/09/22 01:10:21;;;;;;;26.08;17.02;;;21.40;83.10;;;;;;4946313;28;20031;-83
2023/09/22 01:12:49;;;;;;;27.63;17.27;;;21.40;83.20;;;;;;4974958;28;20078;-83
2023/09/22 01:15:15;;;;;;;20.73;15.73;;;21.40;83.20;;;;;;4977140;28;20030;-83
2023/09/22 01:17:41;;;;;;;22.77;15.93;;;21.40;83.20;;;;;;4959791;28;20525;-83
2023/09/22 01:20:09;;;;;;;26.17;17.10;;;21.30;83.30;;;;;;4959288;28;20039;-83
2023/09/22 01:22:35;;;;;;;25.15;16.63;;;21.30;83.60;;;;;;4976148;28;20041;-83
2023/09/22 01:25:01;;;;;;;27.10;17.05;;;21.30;83.70;;;;;;4976350;28;20122;-82
2023/09/22 01:27:27;;;;;;;24.98;17.48;;;21.30;83.70;;;;;;4959692;28;20117;-82
2023/09/22 01:29:53;;;;;;;25.85;16.10;;;21.40;83.90;;;;;;4977890;28;20153;-81
2023/09/22 01:32:19;;;;;;;21.67;16.60;;;21.40;83.70;;;;;;4943468;28;20041;-83
2023/09/22 01:34:45;;;;;;;20.92;16.10;;;21.40;83.60;;;;;;4976676;28;20034;-81
2023/09/22 01:37:11;;;;;;;25.95;16.85;;;21.30;83.40;;;;;;4958932;28;20036;-78
2023/09/22 01:39:38;;;;;;;26.33;17.23;;;21.30;83.20;;;;;;4976041;28;20077;-77
2023/09/22 01:42:03;;;;;;;26.75;17.92;;;21.30;83.20;;;;;;4975291;28;20121;-78
2023/09/22 01:44:29;;;;;;;26.63;17.60;;;21.20;83.20;;;;;;4960002;28;20065;-77
2023/09/22 01:46:56;;;;;;;22.90;16.90;;;21.30;83.30;;;;;;4959109;28;20030;-77
2023/09/22 01:49:23;;;;;;;25.88;17.40;;;21.20;83.50;;;;;;4944325;28;20085;-77
2023/09/22 01:51:49;;;;;;;26.10;17.23;;;21.20;83.40;;;;;;4958231;28;20046;-78
2023/09/22 01:54:15;;;;;;;25.52;16.02;;;21.20;83.30;;;;;;4959465;28;20054;-78
2023/09/22 01:56:41;;;;;;;21.52;16.23;;;21.20;83.10;;;;;;4975653;28;20035;-78
2023/09/22 01:59:07;;;;;;;23.88;17.65;;;21.20;83.10;;;;;;4955645;28;20038;-77
2023/09/22 02:01:33;;;;;;;23.20;16.58;;;21.20;83.10;;;;;;4957678;28;20066;-78
2023/09/22 02:03:59;;;;;;;22.67;16.70;;;21.20;83.20;;;;;;4975583;28;20493;-78
2023/09/22 02:06:27;;;;;;;23.23;17.02;;;21.20;83.20;;;;;;4975774;28;20559;-77
2023/09/22 02:08:53;;;;;;;25.35;17.65;;;21.10;83.00;;;;;;4976010;28;20034;-77
2023/09/22 02:11:19;;;;;;;23.77;16.38;;;21.10;83.00;;;;;;4958532;28;20027;-78
2023/09/22 02:13:45;;;;;;;24.42;17.33;;;21.10;82.90;;;;;;4958277;28;20041;-78
2023/09/22 02:16:11;;;;;;;24.75;16.88;;;21.10;82.90;;;;;;4958848;28;20030;-78
2023/09/22 02:18:38;;;;;;;23.60;17.48;;;21.10;83.00;;;;;;4975078;28;20022;-78
2023/09/22 02:21:06;;;;;;;26.23;17.58;;;21.10;82.90;;;;;;4975412;28;20513;-78
2023/09/22 02:23:32;;;;;;;24.27;18.13;;;21.10;82.80;;;;;;4943072;28;20035;-78
2023/09/22 02:26:06;;;;;;;29.70;17.90;;;21.00;82.70;;;;;;4958185;28;20412;-78
2023/09/22 02:28:32;;;;;;;24.20;16.80;;;21.00;82.70;;;;;;4974908;28;20112;-78
2023/09/22 02:30:58;;;;;;;21.73;15.75;;;21.00;82.70;;;;;;4975967;28;20042;-78
2023/09/22 02:33:24;;;;;;;27.95;17.75;;;20.90;82.70;;;;;;4947811;28;20037;-78
2023/09/22 02:35:50;;;;;;;22.40;17.08;;;20.90;82.70;;;;;;4957615;28;20139;-78
2023/09/22 02:38:16;;;;;;;23.15;17.10;;;20.90;82.70;;;;;;4950375;28;20058;-79
2023/09/22 02:40:45;;;;;;;26.58;16.80;;;20.80;82.70;;;;;;4974881;28;20050;-79
2023/09/22 02:43:11;;;;;;;25.50;17.23;;;20.80;82.70;;;;;;4957719;28;20875;-79
2023/09/22 02:45:38;;;;;;;25.23;16.98;;;20.80;82.70;;;;;;4957515;28;20643;-78
2023/09/22 02:48:08;;;;;;;29.05;18.15;;;20.80;82.70;;;;;;4962276;28;20125;-79
2023/09/22 02:50:37;;;;;;;28.05;18.80;;;20.80;82.70;;;;;;4958354;28;20125;-78
2023/09/22 02:53:03;;;;;;;26.92;19.08;;;20.80;82.70;;;;;;4957723;28;20039;-79
2023/09/22 02:55:37;;;;;;;30.08;19.10;;;20.80;82.80;;;;;;4958100;28;20047;-79
2023/09/22 02:58:04;;;;;;;27.20;18.85;;;20.80;83.00;;;;;;4975118;28;20086;-79
2023/09/22 03:00:30;;;;;;;27.80;19.27;;;20.80;83.20;;;;;;4974313;28;20074;-78
2023/09/22 03:02:56;;;;;;;28.35;20.13;;;20.80;84.00;;;;;;4943936;28;20042;-78
2023/09/22 03:05:24;;;;;;;35.35;19.65;;;20.80;83.40;;;;;;4962184;28;20113;-79
2023/09/22 03:07:55;;;;;;;30.70;19.10;;;20.70;83.40;;;;;;4948686;28;20030;-79
2023/09/22 03:10:21;;;;;;;28.63;18.75;;;20.70;83.40;;;;;;4960125;28;20506;-79
2023/09/22 03:12:53;;;;;;;26.45;18.90;;;20.70;83.40;;;;;;4961499;28;20168;-79
2023/09/22 03:15:20;;;;;;;26.40;18.27;;;20.70;83.40;;;;;;4961273;28;20035;-78
2023/09/22 03:17:46;;;;;;;29.90;19.13;;;20.70;83.50;;;;;;4978367;28;20155;-78
2023/09/22 03:20:12;;;;;;;26.65;19.42;;;20.70;83.60;;;;;;4961224;28;20082;-82
2023/09/22 03:22:39;;;;;;;29.35;19.17;;;20.70;83.60;;;;;;4944997;28;20167;-81
2023/09/22 03:25:06;;;;;;;27.55;19.80;;;20.70;83.60;;;;;;4960895;28;20035;-81
2023/09/22 03:27:34;;;;;;;29.55;18.85;;;20.70;83.60;;;;;;4959095;28;20034;-81
2023/09/22 03:30:05;;;;;;;28.63;19.38;;;20.70;83.90;;;;;;4945717;28;20062;-81
2023/09/22 03:32:33;;;;;;;27.33;18.70;;;20.70;84.30;;;;;;4961484;28;20049;-81
2023/09/22 03:34:59;;;;;;;27.10;18.88;;;20.70;83.70;;;;;;4945304;28;20100;-81
2023/09/22 03:37:29;;;;;;;28.77;18.70;;;20.70;83.70;;;;;;4961018;28;20039;-81
2023/09/22 03:39:58;;;;;;;28.08;19.30;;;20.70;84.00;;;;;;4945438;28;20049;-78
2023/09/22 03:42:27;;;;;;;28.60;19.13;;;20.70;83.90;;;;;;4949478;28;20038;-78
2023/09/22 03:44:56;;;;;;;26.30;18.95;;;20.70;83.90;;;;;;4960214;28;20413;-78
2023/09/22 03:47:21;;;;;;;27.33;19.85;;;20.80;83.80;;;;;;4960415;28;20031;-79
2023/09/22 03:49:47;;;;;;;28.95;19.00;;;20.80;83.80;;;;;;4976823;28;20034;-80
2023/09/22 03:52:14;;;;;;;30.20;19.77;;;20.80;83.70;;;;;;4958902;28;20073;-79
2023/09/22 03:54:40;;;;;;;30.20;19.50;;;20.80;83.70;;;;;;4958990;28;20461;-78
2023/09/22 03:57:06;;;;;;;27.35;18.90;;;20.80;83.80;;;;;;4959225;28;20030;-80
2023/09/22 03:59:32;;;;;;;25.58;19.40;;;20.80;83.90;;;;;;4975611;28;20034;-79
2023/09/22 04:01:59;;;;;;;29.63;20.58;;;20.70;83.80;;;;;;4958247;28;20045;-80
2023/09/22 04:04:29;;;;;;;29.00;19.35;;;20.80;83.80;;;;;;4959206;28;20034;-80
2023/09/22 04:06:57;;;;;;;26.60;18.60;;;20.80;84.00;;;;;;4975234;28;20042;-81
2023/09/22 04:09:24;;;;;;;29.75;19.33;;;20.80;83.80;;;;;;4964322;28;20038;-80
2023/09/22 04:11:49;;;;;;;30.58;19.73;;;20.80;83.70;;;;;;4976670;28;20703;-79
2023/09/22 04:14:16;;;;;;;28.17;19.48;;;20.70;83.70;;;;;;4975184;28;20069;-82
2023/09/22 04:16:42;;;;;;;29.75;19.80;;;20.80;83.80;;;;;;4959006;28;20043;-81
2023/09/22 04:19:09;;;;;;;30.65;19.83;;;20.80;83.80;;;;;;4958398;28;20096;-82
2023/09/22 04:21:42;;;;;;;32.15;19.48;;;20.80;83.80;;;;;;4958502;28;20022;-81
2023/09/22 04:24:12;;;;;;;33.08;20.23;;;20.80;83.80;;;;;;4959936;28;20433;-78
2023/09/22 04:26:44;;;;;;;28.05;18.60;;;20.90;84.40;;;;;;4977141;28;20123;-78
2023/09/22 04:29:10;;;;;;;28.42;18.05;;;20.90;83.80;;;;;;4958431;28;20039;-78
2023/09/22 04:31:36;;;;;;;29.70;19.35;;;20.90;83.80;;;;;;4976664;28;20081;-78
2023/09/22 04:34:03;;;;;;;28.85;18.73;;;20.90;83.90;;;;;;4976597;28;20046;-78
2023/09/22 04:36:30;;;;;;;26.15;17.88;;;20.90;84.00;;;;;;4959142;28;20061;-79
2023/09/22 04:38:57;;;;;;;27.02;18.88;;;21.00;84.10;;;;;;4976165;28;20125;-79
2023/09/22 04:41:23;;;;;;;23.45;17.88;;;21.00;84.10;;;;;;4975979;28;20054;-79
2023/09/22 04:43:52;;;;;;;27.30;17.90;;;21.00;84.40;;;;;;4976747;28;20048;-80
2023/09/22 04:46:19;;;;;;;25.65;17.75;;;21.10;84.60;;;;;;4965118;28;20456;-78
2023/09/22 04:48:49;;;;;;;24.38;17.58;;;21.10;84.60;;;;;;4976512;28;20085;-78
2023/09/22 04:51:15;;;;;;;23.98;17.75;;;21.10;84.70;;;;;;4977109;28;20406;-78
2023/09/22 04:53:41;;;;;;;28.02;17.70;;;21.20;84.70;;;;;;4979869;28;20557;-79
2023/09/22 04:56:07;;;;;;;27.48;18.85;;;21.20;84.80;;;;;;4959020;28;20564;-80
2023/09/22 04:58:34;;;;;;;29.23;18.88;;;21.20;85.10;;;;;;4976132;28;20081;-80
2023/09/22 05:01:02;;;;;;;26.10;18.33;;;21.30;85.10;;;;;;4977310;28;20049;-79
2023/09/22 05:03:28;;;;;;;24.92;19.10;;;21.30;85.20;;;;;;4974737;28;20061;-78
2023/09/22 05:06:01;;;;;;;23.10;17.60;;;21.30;85.10;;;;;;4958532;28;20057;-79
2023/09/22 05:08:28;;;;;;;23.80;17.73;;;21.30;85.10;;;;;;4973946;28;20445;-79
2023/09/22 05:10:54;;;;;;;30.23;17.30;;;21.30;85.00;;;;;;4975389;28;20130;-79
2023/09/22 05:13:20;;;;;;;20.70;17.10;;;21.40;85.00;;;;;;4976182;28;20121;-79
2023/09/22 05:15:47;;;;;;;23.15;17.52;;;21.40;84.90;;;;;;4958237;28;20046;-83
2023/09/22 05:18:13;;;;;;;24.52;17.63;;;21.40;84.80;;;;;;4958922;28;20192;-79
2023/09/22 05:35:02;;;;;;;19.83;15.00;;;21.50;84.30;;;;;;5087805;27;20897;-79
2023/09/22 05:37:31;;;;;;;21.85;14.60;;;21.40;86.50;;;;;;5040515;28;20121;-81
2023/09/22 05:39:57;;;;;;;18.20;14.32;;;21.80;85.10;;;;;;5043427;28;20114;-79
2023/09/22 05:42:23;;;;;;;17.73;14.05;;;22.20;83.90;;;;;;5040775;28;20307;-80
2023/09/22 05:44:49;;;;;;;19.75;15.63;;;22.40;83.10;;;;;;5038782;28;20033;-82
2023/09/22 05:47:15;;;;;;;24.65;17.90;;;22.50;82.50;;;;;;5057564;28;20036;-90
2023/09/22 05:49:42;;;;;;;25.70;17.33;;;22.60;82.70;;;;;;5073652;28;20036;-86
2023/09/22 05:52:08;;;;;;;27.63;18.13;;;22.60;83.50;;;;;;5059895;28;20052;-90
2023/09/22 05:54:34;;;;;;;25.75;18.55;;;22.70;84.00;;;;;;5079869;28;20118;-86
2023/09/22 05:57:00;;;;;;;24.05;17.30;;;22.80;84.00;;;;;;5003501;28;20539;-84
2023/09/22 05:59:29;;;;;;;23.02;17.45;;;22.80;84.00;;;;;;5018185;28;20029;-83
2023/09/22 06:01:57;;;;;;;23.45;17.90;;;22.90;83.90;;;;;;5036823;28;20052;-93
2023/09/22 06:04:24;;;;;;;27.48;18.08;;;23.00;83.70;;;;;;5024575;28;20033;-85
2023/09/22 06:06:50;;;;;;;26.08;18.95;;;23.00;83.70;;;;;;5037542;28;20527;-89
2023/09/22 06:09:16;;;;;;;27.23;18.48;;;23.10;83.40;;;;;;5007434;28;20384;-84
2023/09/22 06:11:42;;;;;;;22.83;18.38;;;23.20;83.30;;;;;;5037988;28;20045;-84
2023/09/22 06:14:08;;;;;;;23.90;17.83;;;23.20;83.30;;;;;;5037478;28;20120;-83
2023/09/22 06:16:34;;;;;;;25.15;17.27;;;23.40;83.10;;;;;;5024750;28;20045;-87
2023/09/22 06:19:00;;;;;;;29.33;19.13;;;23.50;82.70;;;;;;5053411;28;20029;-88
2023/09/22 06:21:27;;;;;;;25.02;19.58;;;23.50;82.30;;;;;;5007259;28;20533;-85
2023/09/22 06:23:53;;;;;;;28.85;20.58;;;23.60;82.10;;;;;;5019788;28;20042;-84
2023/09/22 06:26:19;;;;;;;23.30;19.60;;;23.70;81.90;;;;;;5014787;28;20124;-84
2023/09/22 06:28:45;;;;;;;26.60;19.08;;;23.80;81.80;;;;;;5052834;28;20124;-86
2023/09/22 06:31:11;;;;;;;22.10;18.30;;;23.90;81.70;;;;;;5023629;28;20036;-85
2023/09/22 06:33:37;;;;;;;23.63;17.33;;;23.90;81.40;;;;;;5026103;28;20049;-86
2023/09/22 06:36:05;;;;;;;21.65;16.17;;;24.00;81.20;;;;;;4993199;28;20413;-85
2023/09/22 06:38:35;;;;;;;21.05;15.57;;;24.10;81.10;;;;;;5007600;28;20710;-85
2023/09/22 06:41:02;;;;;;;19.48;16.08;;;24.20;81.00;;;;;;5026274;28;20037;-86
2023/09/22 06:43:29;;;;;;;20.90;15.52;;;24.30;80.90;;;;;;5007884;28;20406;-84
2023/09/22 06:45:58;;;;;;;19.15;14.60;;;24.30;81.00;;;;;;5026245;28;20037;-84
2023/09/22 06:48:29;;;;;;;22.88;15.25;;;;;;;;;;5037109;28;20619;-84
2023/09/22 06:51:00;;;;;;;18.73;14.80;;;24.50;80.20;;;;;;4977165;28;20435;-83
2023/09/22 06:53:28;;;;;;;16.13;13.63;;;;;;;;;;5024431;28;20042;-83
2023/09/22 06:56:09;;;;;;;17.80;13.88;;;24.70;79.90;;;;;;5022693;28;20476;-84
2023/09/22 06:58:36;;;;;;;17.90;13.77;;;24.70;80.40;;;;;;4993327;28;20057;-84
2023/09/22 07:01:13;;;;;;;17.80;13.77;;;24.80;80.20;;;;;;5010400;28;20033;-84
2023/09/22 07:03:40;;;;;;;23.38;14.15;;;24.90;80.30;;;;;;5027330;28;20033;-84
2023/09/22 07:06:08;;;;;;;18.40;13.80;;;24.90;80.30;;;;;;5004549;28;20044;-83
2023/09/22 07:08:35;;;;;;;17.73;14.15;;;25.00;79.80;;;;;;5002647;28;20037;-84
2023/09/22 07:11:08;;;;;;;18.70;14.18;;;25.00;80.20;;;;;;5025432;28;20064;-84
2023/09/22 07:13:37;;;;;;;19.67;13.80;;;25.10;80.10;;;;;;5023818;28;20029;-81
2023/09/22 07:16:04;;;;;;;20.20;14.68;;;25.20;79.90;;;;;;4991685;28;20064;-84
2023/09/22 07:18:30;;;;;;;17.77;14.18;;;25.20;79.50;;;;;;5032345;28;20500;-85
2023/09/22 07:20:56;;;;;;;23.30;14.60;;;25.30;79.50;;;;;;5029069;28;20048;-86
2023/09/22 07:23:23;;;;;;;19.20;14.73;;;25.40;79.40;;;;;;5015464;28;20041;-83
2023/09/22 07:26:03;;;;;;;20.42;14.65;;;25.40;79.20;;;;;;4996363;28;20045;-81
2023/09/22 07:28:31;;;;;;;14.93;12.65;;;25.50;79.30;;;;;;5029731;28;20467;-83
2023/09/22 07:30:57;;;;;;;18.13;13.50;;;25.50;79.10;;;;;;5011374;28;20504;-82
2023/09/22 07:33:30;;;;;;;18.73;13.85;;;25.60;79.00;;;;;;5013940;28;20065;-86
2023/09/22 07:35:57;;;;;;;21.75;13.43;;;25.60;78.90;;;;;;5034916;28;20048;-83
2023/09/22 07:38:24;;;;;;;16.50;12.43;;;25.70;79.10;;;;;;5026033;28;20076;-84
2023/09/22 07:40:51;;;;;;;18.25;12.82;;;25.70;79.10;;;;;;5028565;28;20128;-84
2023/09/22 07:43:17;;;;;;;16.45;11.95;;;25.80;78.50;;;;;;5025441;28;20056;-88
2023/09/22 07:45:43;;;;;;;16.23;12.68;;;25.80;77.90;;;;;;5013225;28;20064;-84
2023/09/22 07:48:09;;;;;;;18.30;11.68;;;25.80;77.00;;;;;;5012060;28;20033;-85
2023/09/22 07:50:35;;;;;;;14.80;11.23;;;25.80;76.70;;;;;;5009767;28;20165;-82
2023/09/22 07:53:02;;;;;;;16.60;11.13;;;25.80;75.80;;;;;;5025456;28;20112;-88
2023/09/22 07:55:29;;;;;;;14.23;10.98;;;25.80;75.80;;;;;;4994716;28;20129;-79
2023/09/22 07:57:55;;;;;;;17.48;10.43;;;25.80;75.30;;;;;;5025329;28;20037;-80
2023/09/22 08:00:22;;;;;;;18.13;10.55;;;25.90;74.80;;;;;;5033628;28;20041;-80
2023/09/22 08:02:50;;;;;;;18.23;10.32;;;25.90;74.40;;;;;;5013723;28;20587;-88
2023/09/22 08:05:16;;;;;;;15.82;10.77;;;25.90;74.30;;;;;;5002005;28;20137;-83
2023/09/22 08:07:43;;;;;;;14.57;10.23;;;25.90;74.60;;;;;;5047658;28;20041;-83
2023/09/22 08:10:10;;;;;;;16.88;10.60;;;25.90;74.90;;;;;;5019058;28;20376;-81
2023/09/22 08:12:38;;;;;;;18.95;10.80;;;25.90;73.90;;;;;;5034842;28;20045;-83
2023/09/22 08:15:04;;;;;;;12.20;10.18;;;25.90;73.40;;;;;;5002569;28;20044;-88
2023/09/22 08:17:30;;;;;;;17.27;10.75;;;25.90;73.10;;;;;;5016679;28;20100;-80
2023/09/22 08:19:56;;;;;;;15.68;10.23;;;25.90;73.20;;;;;;5033419;28;20128;-80
2023/09/22 08:22:24;;;;;;;18.20;10.55;;;25.90;73.20;;;;;;5032192;28;20120;-81
2023/09/22 08:24:50;;;;;;;17.33;10.23;;;25.90;72.00;;;;;;5031681;28;20029;-85
2023/09/22 08:27:16;;;;;;;13.40;9.63;;;25.90;72.50;;;;;;5030928;28;20371;-84
2023/09/22 08:29:42;;;;;;;24.40;9.98;;;25.90;72.20;;;;;;5028796;28;20080;-82
2023/09/22 08:32:09;;;;;;;12.60;9.02;;;25.90;72.20;;;;;;4997787;28;20037;-85
2023/09/22 08:34:36;;;;;;;12.85;8.90;;;25.90;72.40;;;;;;5031383;28;20144;-79
2023/09/22 08:37:02;;;;;;;13.52;9.27;;;25.90;72.50;;;;;;5030521;28;20067;-82
2023/09/22 08:39:30;;;;;;;11.13;9.05;;;25.90;72.50;;;;;;5028956;28;20034;-84
2023/09/22 08:41:56;;;;;;;12.68;8.80;;;25.90;72.40;;;;;;5029982;28;20038;-87
2023/09/22 08:44:24;;;;;;;12.75;8.95;;;25.90;72.60;;;;;;5029671;28;20045;-85
2023/09/22 08:46:50;;;;;;;17.40;9.80;;;25.90;72.50;;;;;;5028718;28;20140;-85
2023/09/22 08:49:16;;;;;;;9.75;8.48;;;25.90;72.50;;;;;;5012669;28;20127;-82
2023/09/22 08:51:43;;;;;;;9.93;8.55;;;25.90;72.50;;;;;;5031124;28;20029;-91
2023/09/22 08:54:11;;;;;;;11.38;8.45;;;25.90;72.60;;;;;;5030276;28;20409;-88
2023/09/22 08:56:37;;;;;;;9.25;7.97;;;25.90;72.60;;;;;;4998148;28;20076;-95
2023/09/22 08:59:03;;;;;;;9.20;7.82;;;25.90;72.40;;;;;;5029834;28;20124;-85
2023/09/22 09:01:29;;;;;;;10.02;8.40;;;25.80;72.20;;;;;;5025907;28;20263;-86
2023/09/22 09:03:55;;;;;;;12.20;8.40;;;25.80;72.10;;;;;;5028560;28;20053;-89
2023/09/22 09:06:21;;;;;;;8.13;7.32;;;25.80;71.80;;;;;;5044697;28;20502;-89
2023/09/22 09:09:04;;;;;;;11.20;7.47;;;25.80;71.60;;;;;;5031390;28;20029;-94
2023/09/22 09:11:30;;;;;;;9.73;7.55;;;25.80;71.30;;;;;;5000238;28;20030;-91
2023/09/22 09:13:56;;;;;;;10.65;7.63;;;25.80;71.10;;;;;;5013031;28;20115;-95
2023/09/22 09:16:30;;;;;;;10.05;8.05;;;25.80;71.00;;;;;;5015846;28;20038;-92
2023/09/22 09:19:14;;;;;;;10.02;7.18;;;25.70;71.00;;;;;;5033404;28;20034;-93
2023/09/22 09:22:09;;;;;;;9.10;8.10;;;25.70;70.90;;;;;;5009678;28;20037;-93
2023/09/22 09:24:36;;;;;;;11.00;8.32;;;25.70;70.90;;;;;;5031330;28;20519;-92
2023/09/22 09:27:31;;;;;;;11.23;8.82;;;25.70;70.80;;;;;;4998585;28;20179;-90
2023/09/22 09:29:57;;;;;;;10.93;7.75;;;25.70;70.80;;;;;;5006479;28;20099;-82
2023/09/22 09:32:27;;;;;;;9.73;7.50;;;25.70;70.60;;;;;;5010592;28;20073;-83
2023/09/22 09:34:53;;;;;;;10.38;8.00;;;25.70;70.20;;;;;;4996195;28;20497;-84
2023/09/22 09:37:40;;;;;;;16.63;8.00;;;25.60;69.10;;;;;;5060812;28;20409;-77
2023/09/22 09:40:10;;;;;;;9.55;7.43;;;25.60;69.40;;;;;;5027384;28;20017;-77
2023/09/22 09:42:40;;;;;;;12.95;7.60;;;25.60;68.70;;;;;;5027063;28;20440;-79
2023/09/22 09:45:06;;;;;;;10.68;7.13;;;25.60;68.50;;;;;;5026961;28;20392;-76
2023/09/22 09:47:35;;;;;;;7.93;6.85;;;25.70;68.80;;;;;;5030954;28;20044;-77
2023/09/22 09:50:04;;;;;;;11.50;7.38;;;25.60;68.50;;;;;;5026908;28;20044;-76
2023/09/22 09:52:37;;;;;;;10.10;7.25;;;25.60;68.20;;;;;;5030330;28;20477;-77
2023/09/22 09:55:08;;;;;;;7.45;6.47;;;25.70;67.90;;;;;;5046591;28;20029;-78
2023/09/22 09:57:38;;;;;;;7.47;6.78;;;25.60;67.70;;;;;;5043804;28;20119;-78
2023/09/22 10:00:12;;;;;;;11.25;7.15;;;25.60;67.70;;;;;;5042729;28;20030;-77
2023/09/22 10:02:45;;;;;;;7.25;6.43;;;25.60;66.60;;;;;;5042634;28;20064;-78
2023/09/22 10:05:16;;;;;;;8.77;6.82;;;25.60;66.40;;;;;;5042940;28;20026;-79
2023/09/22 10:07:47;;;;;;;7.93;6.93;;;25.60;66.40;;;;;;5041543;28;20033;-78
2023/09/22 10:10:14;;;;;;;7.13;6.43;;;25.60;66.00;;;;;;5042924;28;20041;-79
2023/09/22 10:12:42;;;;;;;8.45;6.55;;;25.60;65.50;;;;;;5042683;28;20056;-79
2023/09/22 10:15:09;;;;;;;7.40;6.60;;;25.50;65.20;;;;;;5042905;28;20037;-79
2023/09/22 10:17:38;;;;;;;8.20;6.20;;;25.50;64.40;;;;;;5042274;28;20051;-79
2023/09/22 10:20:13;;;;;;;13.45;6.43;;;25.50;64.40;;;;;;5042447;28;20056;-78
2023/09/22 10:22:40;;;;;;;6.90;6.20;;;25.50;64.20;;;;;;5043014;28;20034;-78
2023/09/22 10:25:12;;;;;;;6.93;5.95;;;25.50;64.40;;;;;;5043552;28;20033;-77
2023/09/22 10:27:57;;;;;;;7.03;6.32;;;25.50;65.00;;;;;;5041335;28;20554;-76
2023/09/22 10:30:44;;;;;;;7.20;6.50;;;25.50;64.60;;;;;;5041294;28;20531;-77
2023/09/22 10:33:16;;;;;;;6.82;6.13;;;25.50;64.20;;;;;;5040603;28;20393;-76
2023/09/22 10:35:43;;;;;;;6.93;6.22;;;25.50;64.00;;;;;;5041743;28;20061;-76
2023/09/22 10:38:12;;;;;;;7.30;6.05;;;25.50;63.60;;;;;;5042470;28;20370;-76
2023/09/22 10:40:41;;;;;;;7.25;6.38;;;25.50;63.50;;;;;;5041672;28;20510;-76
2023/09/22 10:43:07;;;;;;;7.80;5.80;;;25.50;63.40;;;;;;5042496;28;20013;-76
2023/09/22 10:45:33;;;;;;;7.18;6.10;;;25.50;63.30;;;;;;5041871;28;20481;-77
2023/09/22 10:48:00;;;;;;;7.35;6.32;;;25.50;62.90;;;;;;5017125;28;20120;-77
2023/09/22 10:50:31;;;;;;;7.13;6.35;;;25.50;63.00;;;;;;5026674;28;20184;-77
2023/09/22 10:53:02;;;;;;;6.50;5.85;;;25.40;62.50;;;;;;5028185;28;20508;-77
2023/09/22 10:55:40;;;;;;;6.50;5.90;;;25.40;62.40;;;;;;5027033;28;20508;-77
2023/09/22 10:58:08;;;;;;;7.15;6.03;;;25.50;62.60;;;;;;5030498;28;20047;-77
2023/09/22 11:00:36;;;;;;;7.82;6.93;;;25.50;62.30;;;;;;5028214;28;20037;-77
2023/09/22 11:03:16;;;;;;;7.20;6.38;;;25.50;62.80;;;;;;5026915;28;20511;-76
2023/09/22 11:05:43;;;;;;;6.50;5.90;;;25.40;62.30;;;;;;5028187;28;20124;-76
2023/09/22 11:08:17;;;;;;;9.18;6.28;;;25.40;61.80;;;;;;5028255;28;20039;-76
2023/09/22 11:10:56;;;;;;;7.63;6.68;;;25.50;61.90;;;;;;5027065;28;20520;-76
2023/09/22 11:13:23;;;;;;;7.97;6.28;;;25.50;62.80;;;;;;5022638;28;20136;-78
2023/09/22 11:15:56;;;;;;;7.85;6.57;;;25.40;62.90;;;;;;5028606;28;20071;-78
2023/09/22 11:18:35;;;;;;;9.23;6.38;;;25.40;62.90;;;;;;5028364;28;20045;-78
2023/09/22 11:21:08;;;;;;;8.30;6.28;;;25.50;62.80;;;;;;5034122;28;20087;-78
2023/09/22 11:23:41;;;;;;;7.68;6.30;;;25.50;62.90;;;;;;5029172;28;20075;-82
2023/09/22 11:26:12;;;;;;;8.02;6.05;;;25.40;61.40;;;;;;5044857;28;20033;-80
2023/09/22 11:28:41;;;;;;;6.63;5.93;;;25.40;60.70;;;;;;5046429;28;20102;-80
2023/09/22 11:31:14;;;;;;;7.35;6.65;;;25.40;60.60;;;;;;5040871;28;20033;-82
2023/09/22 11:33:41;;;;;;;7.35;6.68;;;25.40;60.50;;;;;;5021684;28;20072;-81
2023/09/22 11:36:08;;;;;;;6.97;6.38;;;25.40;60.70;;;;;;5044947;28;20116;-82
2023/09/22 11:38:39;;;;;;;7.25;6.20;;;25.40;60.80;;;;;;5039166;28;20112;-80
2023/09/22 11:41:17;;;;;;;7.63;6.88;;;25.40;61.30;;;;;;5033262;28;20048;-80
2023/09/22 11:43:48;;;;;;;7.32;6.72;;;25.40;61.90;;;;;;5028063;28;20033;-79
2023/09/22 11:46:32;;;;;;;6.95;6.30;;;25.40;62.10;;;;;;5029231;28;20029;-81
2023/09/22 11:49:05;;;;;;;6.85;6.25;;;25.40;62.60;;;;;;5029021;28;20622;-79
2023/09/22 11:51:51;;;;;;;6.15;5.60;;;25.40;62.70;;;;;;4991225;28;20041;-78
2023/09/22 11:54:19;;;;;;;6.63;5.93;;;25.40;62.60;;;;;;5007420;28;20038;-80
2023/09/22 11:56:46;;;;;;;7.60;6.65;;;25.40;62.80;;;;;;5004768;28;20045;-79
2023/09/22 11:59:14;;;;;;;7.13;6.35;;;25.40;62.90;;;;;;5004682;28;20034;-79
2023/09/22 12:01:41;;;;;;;6.90;6.18;;;25.40;62.80;;;;;;5006892;28;20040;-80
2023/09/22 12:04:10;;;;;;;7.05;6.18;;;25.40;62.60;;;;;;5006766;28;20045;-79
2023/09/22 12:06:40;;;;;;;8.93;6.53;;;25.40;62.60;;;;;;5006317;28;20136;-78
2023/09/22 12:09:11;;;;;;;6.68;5.93;;;25.40;62.80;;;;;;5005471;28;20045;-80
2023/09/22 12:11:38;;;;;;;7.63;6.80;;;25.40;63.00;;;;;;5018366;28;20423;-83
2023/09/22 12:14:04;;;;;;;7.38;6.63;;;25.40;62.40;;;;;;5026230;28;20037;-78
2023/09/22 12:16:31;;;;;;;7.35;6.63;;;25.40;62.50;;;;;;5026378;28;20091;-81
2023/09/22 12:18:57;;;;;;;9.63;6.75;;;25.40;62.40;;;;;;5026925;28;20476;-80
2023/09/22 12:21:25;;;;;;;7.60;6.90;;;25.40;62.50;;;;;;5025760;28;20033;-79
2023/09/22 12:23:51;;;;;;;7.35;6.03;;;25.40;62.60;;;;;;5010406;28;20025;-82
2023/09/22 12:26:17;;;;;;;9.38;6.45;;;25.40;62.60;;;;;;5026556;28;20037;-82
2023/09/22 12:28:43;;;;;;;8.05;6.80;;;25.40;62.50;;;;;;4992690;28;20045;-80
2023/09/22 12:31:10;;;;;;;8.52;6.55;;;25.40;62.00;;;;;;5041701;28;20048;-81
2023/09/22 12:33:37;;;;;;;7.10;6.22;;;25.40;61.70;;;;;;5024580;28;20440;-82
2023/09/22 12:36:03;;;;;;;8.45;6.43;;;25.40;61.50;;;;;;5021060;28;20527;-80
2023/09/22 12:38:29;;;;;;;8.63;6.57;;;25.40;61.90;;;;;;5024793;28;20058;-81
2023/09/22 12:40:57;;;;;;;8.70;6.45;;;25.40;62.40;;;;;;5025479;28;20110;-81
2023/09/22 12:43:24;;;;;;;7.03;6.13;;;25.40;62.00;;;;;;5041545;28;20033;-78
2023/09/22 12:45:50;;;;;;;7.80;6.35;;;25.40;61.90;;;;;;5026954;28;20479;-80
2023/09/22 12:48:16;;;;;;;7.65;6.10;;;25.40;61.90;;;;;;5024941;28;20096;-81
2023/09/22 12:50:42;;;;;;;7.40;5.95;;;25.40;61.70;;;;;;5026796;28;20052;-81
2023/09/22 12:53:08;;;;;;;7.45;6.40;;;25.30;61.90;;;;;;5026073;28;20037;-81